sensor_id;sensor_type;location;lat;lon;timestamp;temperature;humidity
33865;DHT22;20159;51.072;13.526;2023-04-29T00:00:13;13.30;90.20
33865;DHT22;20159;51.072;13.526;2023-04-29T00:02:39;13.20;90.20
33865;DHT22;20159;51.072;13.526;2023-04-29T00:05:05;13.20;90.30
33865;DHT22;20159;51.072;13.526;2023-04-29T00:07:31;13.20;90.40
33865;DHT22;20159;51.072;13.526;2023-04-29T00:10:00;13.20;90.50
33865;DHT22;20159;51.072;13.526;2023-04-29T00:12:26;13.20;90.60
33865;DHT22;20159;51.072;13.526;2023-04-29T00:14:52;13.10;90.60
33865;DHT22;20159;51.072;13.526;2023-04-29T00:17:18;13.10;90.60
33865;DHT22;20159;51.072;13.526;2023-04-29T00:19:44;13.10;90.60
33865;DHT22;20159;51.072;13.526;2023-04-29T00:22:09;13.10;90.70
33865;DHT22;20159;51.072;13.526;2023-04-29T00:24:35;13.10;90.80
33865;DHT22;20159;51.072;13.526;2023-04-29T00:27:01;13.00;91.00
33865;DHT22;20159;51.072;13.526;2023-04-29T00:29:27;13.00;91.20
33865;DHT22;20159;51.072;13.526;2023-04-29T00:31:53;13.00;91.40
33865;DHT22;20159;51.072;13.526;2023-04-29T00:34:18;13.10;91.60
33865;DHT22;20159;51.072;13.526;2023-04-29T00:36:44;13.10;91.70
33865;DHT22;20159;51.072;13.526;2023-04-29T00:39:10;13.10;91.70
33865;DHT22;20159;51.072;13.526;2023-04-29T00:41:38;13.10;91.80
33865;DHT22;20159;51.072;13.526;2023-04-29T00:44:03;13.20;91.80
33865;DHT22;20159;51.072;13.526;2023-04-29T00:46:29;13.20;91.80
33865;DHT22;20159;51.072;13.526;2023-04-29T00:48:54;13.30;91.90
33865;DHT22;20159;51.072;13.526;2023-04-29T00:51:20;13.40;91.90
33865;DHT22;20159;51.072;13.526;2023-04-29T00:53:46;13.40;91.90
33865;DHT22;20159;51.072;13.526;2023-04-29T00:56:12;13.50;91.80
33865;DHT22;20159;51.072;13.526;2023-04-29T00:58:39;13.50;91.80
33865;DHT22;20159;51.072;13.526;2023-04-29T01:01:08;13.60;91.70
33865;DHT22;20159;51.072;13.526;2023-04-29T01:03:34;13.60;91.80
33865;DHT22;20159;51.072;13.526;2023-04-29T01:08:56;13.70;91.90
33865;DHT22;20159;51.072;13.526;2023-04-29T01:11:28;13.70;92.20
33865;DHT22;20159;51.072;13.526;2023-04-29T01:13:58;13.80;91.90
33865;DHT22;20159;51.072;13.526;2023-04-29T01:19:02;13.80;92.10
33865;DHT22;20159;51.072;13.526;2023-04-29T01:21:31;13.90;92.00
33865;DHT22;20159;51.072;13.526;2023-04-29T01:23:57;13.90;91.90
33865;DHT22;20159;51.072;13.526;2023-04-29T01:26:23;13.90;92.00
33865;DHT22;20159;51.072;13.526;2023-04-29T01:29:13;14.00;92.10
33865;DHT22;20159;51.072;13.526;2023-04-29T01:31:55;14.00;92.50
33865;DHT22;20159;51.072;13.526;2023-04-29T01:34:51;14.00;92.30
33865;DHT22;20159;51.072;13.526;2023-04-29T01:37:45;14.00;92.60
33865;DHT22;20159;51.072;13.526;2023-04-29T01:40:52;14.00;92.70
33865;DHT22;20159;51.072;13.526;2023-04-29T01:43:27;14.00;92.90
33865;DHT22;20159;51.072;13.526;2023-04-29T01:45:55;14.00;92.50
33865;DHT22;20159;51.072;13.526;2023-04-29T01:48:22;14.00;92.50
33865;DHT22;20159;51.072;13.526;2023-04-29T01:50:48;15.70;93.00
33865;DHT22;20159;51.072;13.526;2023-04-29T01:53:14;14.00;92.80
33865;DHT22;20159;51.072;13.526;2023-04-29T01:55:40;13.90;92.90
33865;DHT22;20159;51.072;13.526;2023-04-29T01:58:05;13.90;93.10
33865;DHT22;20159;51.072;13.526;2023-04-29T02:00:31;13.90;93.20
33865;DHT22;20159;51.072;13.526;2023-04-29T02:02:56;13.90;93.70
33865;DHT22;20159;51.072;13.526;2023-04-29T02:05:22;13.90;93.80
33865;DHT22;20159;51.072;13.526;2023-04-29T02:07:47;13.80;94.10
33865;DHT22;20159;51.072;13.526;2023-04-29T02:10:13;13.80;94.30
33865;DHT22;20159;51.072;13.526;2023-04-29T02:12:39;13.80;94.60
33865;DHT22;20159;51.072;13.526;2023-04-29T02:15:05;13.80;94.90
33865;DHT22;20159;51.072;13.526;2023-04-29T02:17:35;13.80;95.10
33865;DHT22;20159;51.072;13.526;2023-04-29T02:20:00;13.80;95.40
33865;DHT22;20159;51.072;13.526;2023-04-29T02:22:26;13.80;95.50
33865;DHT22;20159;51.072;13.526;2023-04-29T02:24:52;13.80;95.70
33865;DHT22;20159;51.072;13.526;2023-04-29T02:27:17;13.70;95.80
33865;DHT22;20159;51.072;13.526;2023-04-29T02:29:43;13.70;96.00
33865;DHT22;20159;51.072;13.526;2023-04-29T02:32:08;10.70;95.40
33865;DHT22;20159;51.072;13.526;2023-04-29T02:34:34;13.70;96.20
33865;DHT22;20159;51.072;13.526;2023-04-29T02:36:59;13.80;96.30
33865;DHT22;20159;51.072;13.526;2023-04-29T02:39:25;13.70;96.40
33865;DHT22;20159;51.072;13.526;2023-04-29T02:41:53;13.80;96.40
33865;DHT22;20159;51.072;13.526;2023-04-29T02:44:19;13.70;96.50
33865;DHT22;20159;51.072;13.526;2023-04-29T02:46:46;13.70;96.50
33865;DHT22;20159;51.072;13.526;2023-04-29T02:49:12;13.70;96.50
33865;DHT22;20159;51.072;13.526;2023-04-29T02:51:38;13.70;96.60
33865;DHT22;20159;51.072;13.526;2023-04-29T02:54:03;13.70;96.70
33865;DHT22;20159;51.072;13.526;2023-04-29T02:56:29;13.60;96.80
33865;DHT22;20159;51.072;13.526;2023-04-29T02:58:55;13.70;96.90
33865;DHT22;20159;51.072;13.526;2023-04-29T03:01:20;13.60;96.90
33865;DHT22;20159;51.072;13.526;2023-04-29T03:03:46;13.60;97.00
33865;DHT22;20159;51.072;13.526;2023-04-29T03:06:13;13.60;97.10
33865;DHT22;20159;51.072;13.526;2023-04-29T03:08:40;13.60;97.10
33865;DHT22;20159;51.072;13.526;2023-04-29T03:11:06;13.70;97.20
33865;DHT22;20159;51.072;13.526;2023-04-29T03:13:31;13.60;97.20
33865;DHT22;20159;51.072;13.526;2023-04-29T03:15:57;13.60;97.10
33865;DHT22;20159;51.072;13.526;2023-04-29T03:18:24;13.60;97.10
33865;DHT22;20159;51.072;13.526;2023-04-29T03:20:50;16.20;97.70
33865;DHT22;20159;51.072;13.526;2023-04-29T03:23:15;13.60;97.10
33865;DHT22;20159;51.072;13.526;2023-04-29T03:25:41;13.60;97.20
33865;DHT22;20159;51.072;13.526;2023-04-29T03:28:07;13.50;97.20
33865;DHT22;20159;51.072;13.526;2023-04-29T03:30:32;13.50;97.20
33865;DHT22;20159;51.072;13.526;2023-04-29T03:32:58;13.50;97.20
33865;DHT22;20159;51.072;13.526;2023-04-29T03:35:23;13.50;97.30
33865;DHT22;20159;51.072;13.526;2023-04-29T03:37:50;13.40;97.30
33865;DHT22;20159;51.072;13.526;2023-04-29T03:40:15;13.40;97.30
33865;DHT22;20159;51.072;13.526;2023-04-29T03:42:41;13.50;97.40
33865;DHT22;20159;51.072;13.526;2023-04-29T03:45:07;13.40;97.40
33865;DHT22;20159;51.072;13.526;2023-04-29T03:47:32;13.40;97.40
33865;DHT22;20159;51.072;13.526;2023-04-29T03:49:58;13.40;97.40
33865;DHT22;20159;51.072;13.526;2023-04-29T03:52:23;13.40;97.50
33865;DHT22;20159;51.072;13.526;2023-04-29T03:54:50;13.40;97.50
33865;DHT22;20159;51.072;13.526;2023-04-29T03:57:15;13.40;97.60
33865;DHT22;20159;51.072;13.526;2023-04-29T03:59:41;13.40;97.70
33865;DHT22;20159;51.072;13.526;2023-04-29T04:02:07;13.40;97.70
33865;DHT22;20159;51.072;13.526;2023-04-29T04:04:32;13.40;97.80
33865;DHT22;20159;51.072;13.526;2023-04-29T04:06:58;13.40;97.90
33865;DHT22;20159;51.072;13.526;2023-04-29T04:09:23;13.40;97.90
33865;DHT22;20159;51.072;13.526;2023-04-29T04:11:49;13.40;98.00
33865;DHT22;20159;51.072;13.526;2023-04-29T04:14:14;13.50;98.00
33865;DHT22;20159;51.072;13.526;2023-04-29T04:16:40;13.50;98.00
33865;DHT22;20159;51.072;13.526;2023-04-29T04:19:12;13.50;98.00
33865;DHT22;20159;51.072;13.526;2023-04-29T04:21:37;13.50;98.10
33865;DHT22;20159;51.072;13.526;2023-04-29T04:24:03;13.60;98.10
33865;DHT22;20159;51.072;13.526;2023-04-29T04:26:35;13.60;98.10
33865;DHT22;20159;51.072;13.526;2023-04-29T04:29:00;13.70;98.30
33865;DHT22;20159;51.072;13.526;2023-04-29T04:31:27;13.70;98.20
33865;DHT22;20159;51.072;13.526;2023-04-29T04:33:52;13.70;98.20
33865;DHT22;20159;51.072;13.526;2023-04-29T04:36:18;13.70;98.10
33865;DHT22;20159;51.072;13.526;2023-04-29T04:38:43;13.80;98.20
33865;DHT22;20159;51.072;13.526;2023-04-29T04:41:09;13.80;98.20
33865;DHT22;20159;51.072;13.526;2023-04-29T04:43:35;13.80;98.20
33865;DHT22;20159;51.072;13.526;2023-04-29T04:46:11;13.80;98.20
33865;DHT22;20159;51.072;13.526;2023-04-29T04:48:37;13.90;98.30
33865;DHT22;20159;51.072;13.526;2023-04-29T04:51:14;13.90;98.30
33865;DHT22;20159;51.072;13.526;2023-04-29T04:53:40;13.90;98.40
33865;DHT22;20159;51.072;13.526;2023-04-29T04:56:06;14.00;98.30
33865;DHT22;20159;51.072;13.526;2023-04-29T04:58:32;14.00;98.30
33865;DHT22;20159;51.072;13.526;2023-04-29T05:01:01;14.10;98.30
33865;DHT22;20159;51.072;13.526;2023-04-29T05:03:26;15.10;98.60
33865;DHT22;20159;51.072;13.526;2023-04-29T05:06:00;14.10;98.30
33865;DHT22;20159;51.072;13.526;2023-04-29T05:08:26;14.10;98.40
33865;DHT22;20159;51.072;13.526;2023-04-29T05:10:51;14.20;98.30
33865;DHT22;20159;51.072;13.526;2023-04-29T05:13:18;14.20;98.20
33865;DHT22;20159;51.072;13.526;2023-04-29T05:15:44;14.20;98.30
33865;DHT22;20159;51.072;13.526;2023-04-29T05:18:10;14.30;98.30
33865;DHT22;20159;51.072;13.526;2023-04-29T05:20:36;14.30;98.50
33865;DHT22;20159;51.072;13.526;2023-04-29T05:23:04;14.40;98.70
33865;DHT22;20159;51.072;13.526;2023-04-29T05:25:29;14.50;99.10
33865;DHT22;20159;51.072;13.526;2023-04-29T05:27:55;14.70;99.70
33865;DHT22;20159;51.072;13.526;2023-04-29T05:30:21;14.90;99.80
33865;DHT22;20159;51.072;13.526;2023-04-29T05:32:46;15.10;99.50
33865;DHT22;20159;51.072;13.526;2023-04-29T05:35:13;15.20;99.00
33865;DHT22;20159;51.072;13.526;2023-04-29T05:37:39;15.40;98.60
33865;DHT22;20159;51.072;13.526;2023-04-29T05:40:05;15.50;98.10
33865;DHT22;20159;51.072;13.526;2023-04-29T05:42:30;15.60;97.90
33865;DHT22;20159;51.072;13.526;2023-04-29T05:44:56;16.30;97.80
33865;DHT22;20159;51.072;13.526;2023-04-29T05:47:21;15.70;97.30
33865;DHT22;20159;51.072;13.526;2023-04-29T05:49:47;15.70;97.10
33865;DHT22;20159;51.072;13.526;2023-04-29T05:52:13;15.70;97.00
33865;DHT22;20159;51.072;13.526;2023-04-29T05:54:39;15.70;97.00
33865;DHT22;20159;51.072;13.526;2023-04-29T05:57:04;15.70;96.90
33865;DHT22;20159;51.072;13.526;2023-04-29T05:59:30;15.80;96.80
33865;DHT22;20159;51.072;13.526;2023-04-29T06:01:57;15.80;96.60
33865;DHT22;20159;51.072;13.526;2023-04-29T06:04:23;15.80;96.60
33865;DHT22;20159;51.072;13.526;2023-04-29T06:06:50;15.90;96.60
33865;DHT22;20159;51.072;13.526;2023-04-29T06:09:16;15.90;96.60
33865;DHT22;20159;51.072;13.526;2023-04-29T06:11:42;17.00;96.80
33865;DHT22;20159;51.072;13.526;2023-04-29T06:14:09;15.90;96.20
33865;DHT22;20159;51.072;13.526;2023-04-29T06:16:34;16.00;96.10
33865;DHT22;20159;51.072;13.526;2023-04-29T06:19:00;16.00;95.90
33865;DHT22;20159;51.072;13.526;2023-04-29T06:21:26;16.00;95.80
33865;DHT22;20159;51.072;13.526;2023-04-29T06:23:52;16.10;95.60
33865;DHT22;20159;51.072;13.526;2023-04-29T06:26:18;16.10;95.50
33865;DHT22;20159;51.072;13.526;2023-04-29T06:28:48;16.10;95.50
33865;DHT22;20159;51.072;13.526;2023-04-29T06:31:14;16.10;95.40
33865;DHT22;20159;51.072;13.526;2023-04-29T06:33:39;16.10;95.50
33865;DHT22;20159;51.072;13.526;2023-04-29T06:36:05;16.20;95.40
33865;DHT22;20159;51.072;13.526;2023-04-29T06:38:30;17.00;95.40
33865;DHT22;20159;51.072;13.526;2023-04-29T06:40:56;16.10;95.10
33865;DHT22;20159;51.072;13.526;2023-04-29T06:43:30;16.20;95.10
33865;DHT22;20159;51.072;13.526;2023-04-29T06:45:56;16.20;94.80
33865;DHT22;20159;51.072;13.526;2023-04-29T06:48:22;16.20;94.90
33865;DHT22;20159;51.072;13.526;2023-04-29T06:50:51;16.20;95.00
33865;DHT22;20159;51.072;13.526;2023-04-29T06:53:18;16.20;94.80
33865;DHT22;20159;51.072;13.526;2023-04-29T06:55:43;16.20;94.60
33865;DHT22;20159;51.072;13.526;2023-04-29T06:58:13;16.20;94.50
33865;DHT22;20159;51.072;13.526;2023-04-29T07:00:39;16.20;94.50
33865;DHT22;20159;51.072;13.526;2023-04-29T07:03:05;16.20;94.50
33865;DHT22;20159;51.072;13.526;2023-04-29T07:05:30;16.10;94.50
33865;DHT22;20159;51.072;13.526;2023-04-29T07:07:56;16.10;94.50
33865;DHT22;20159;51.072;13.526;2023-04-29T07:10:22;16.10;94.70
33865;DHT22;20159;51.072;13.526;2023-04-29T07:12:47;16.10;94.80
33865;DHT22;20159;51.072;13.526;2023-04-29T07:15:13;16.10;95.00
33865;DHT22;20159;51.072;13.526;2023-04-29T07:17:38;16.10;95.10
33865;DHT22;20159;51.072;13.526;2023-04-29T07:20:04;16.10;95.20
33865;DHT22;20159;51.072;13.526;2023-04-29T07:22:30;16.10;95.00
33865;DHT22;20159;51.072;13.526;2023-04-29T07:24:55;16.10;95.00
33865;DHT22;20159;51.072;13.526;2023-04-29T07:27:22;16.00;95.20
33865;DHT22;20159;51.072;13.526;2023-04-29T07:29:47;16.00;95.20
33865;DHT22;20159;51.072;13.526;2023-04-29T07:32:14;16.10;95.10
33865;DHT22;20159;51.072;13.526;2023-04-29T07:34:40;16.10;95.20
33865;DHT22;20159;51.072;13.526;2023-04-29T07:37:05;16.20;95.10
33865;DHT22;20159;51.072;13.526;2023-04-29T07:39:31;16.20;95.20
33865;DHT22;20159;51.072;13.526;2023-04-29T07:41:56;16.20;95.20
33865;DHT22;20159;51.072;13.526;2023-04-29T07:44:22;16.30;95.00
33865;DHT22;20159;51.072;13.526;2023-04-29T07:46:47;16.30;94.60
33865;DHT22;20159;51.072;13.526;2023-04-29T07:49:13;16.30;94.40
33865;DHT22;20159;51.072;13.526;2023-04-29T07:51:42;16.30;94.30
33865;DHT22;20159;51.072;13.526;2023-04-29T07:54:08;16.30;94.60
33865;DHT22;20159;51.072;13.526;2023-04-29T07:56:34;16.30;94.40
33865;DHT22;20159;51.072;13.526;2023-04-29T07:58:59;16.30;94.30
33865;DHT22;20159;51.072;13.526;2023-04-29T08:01:26;16.30;94.50
33865;DHT22;20159;51.072;13.526;2023-04-29T08:03:51;16.30;94.50
33865;DHT22;20159;51.072;13.526;2023-04-29T08:06:17;16.40;94.50
33865;DHT22;20159;51.072;13.526;2023-04-29T08:08:45;16.30;94.20
33865;DHT22;20159;51.072;13.526;2023-04-29T08:11:17;16.40;94.00
33865;DHT22;20159;51.072;13.526;2023-04-29T08:13:44;16.40;93.80
33865;DHT22;20159;51.072;13.526;2023-04-29T08:16:10;16.30;93.50
33865;DHT22;20159;51.072;13.526;2023-04-29T08:18:35;16.30;93.80
33865;DHT22;20159;51.072;13.526;2023-04-29T08:21:01;16.30;93.80
33865;DHT22;20159;51.072;13.526;2023-04-29T08:23:28;16.20;93.70
33865;DHT22;20159;51.072;13.526;2023-04-29T08:25:53;16.10;93.70
33865;DHT22;20159;51.072;13.526;2023-04-29T08:28:20;16.10;93.80
33865;DHT22;20159;51.072;13.526;2023-04-29T08:30:46;16.00;94.00
33865;DHT22;20159;51.072;13.526;2023-04-29T08:33:12;15.90;94.10
33865;DHT22;20159;51.072;13.526;2023-04-29T08:35:39;15.90;94.40
33865;DHT22;20159;51.072;13.526;2023-04-29T08:38:05;15.90;94.40
33865;DHT22;20159;51.072;13.526;2023-04-29T08:40:34;15.80;94.30
33865;DHT22;20159;51.072;13.526;2023-04-29T08:43:00;15.80;94.40
33865;DHT22;20159;51.072;13.526;2023-04-29T08:45:26;15.80;94.40
33865;DHT22;20159;51.072;13.526;2023-04-29T08:47:54;15.80;94.60
33865;DHT22;20159;51.072;13.526;2023-04-29T08:50:20;15.80;94.50
33865;DHT22;20159;51.072;13.526;2023-04-29T08:52:46;15.80;94.40
33865;DHT22;20159;51.072;13.526;2023-04-29T08:55:12;15.80;94.50
33865;DHT22;20159;51.072;13.526;2023-04-29T08:57:38;15.80;94.50
33865;DHT22;20159;51.072;13.526;2023-04-29T09:00:09;15.80;94.20
33865;DHT22;20159;51.072;13.526;2023-04-29T09:02:40;15.80;93.80
33865;DHT22;20159;51.072;13.526;2023-04-29T09:05:08;15.80;93.70
33865;DHT22;20159;51.072;13.526;2023-04-29T09:07:36;15.80;93.70
33865;DHT22;20159;51.072;13.526;2023-04-29T09:10:03;15.80;93.70
33865;DHT22;20159;51.072;13.526;2023-04-29T09:12:29;15.70;93.80
33865;DHT22;20159;51.072;13.526;2023-04-29T09:14:55;15.70;94.00
33865;DHT22;20159;51.072;13.526;2023-04-29T09:17:44;15.70;93.90
33865;DHT22;20159;51.072;13.526;2023-04-29T09:22:56;15.70;94.50
33865;DHT22;20159;51.072;13.526;2023-04-29T09:25:22;15.70;93.90
33865;DHT22;20159;51.072;13.526;2023-04-29T09:27:48;15.70;93.80
33865;DHT22;20159;51.072;13.526;2023-04-29T09:30:13;15.60;93.50
33865;DHT22;20159;51.072;13.526;2023-04-29T09:32:41;15.60;93.50
33865;DHT22;20159;51.072;13.526;2023-04-29T09:35:23;15.60;93.70
33865;DHT22;20159;51.072;13.526;2023-04-29T09:37:50;15.60;93.90
33865;DHT22;20159;51.072;13.526;2023-04-29T09:40:31;15.60;93.70
33865;DHT22;20159;51.072;13.526;2023-04-29T09:42:58;15.60;94.20
33865;DHT22;20159;51.072;13.526;2023-04-29T09:45:37;15.60;94.20
33865;DHT22;20159;51.072;13.526;2023-04-29T09:48:04;15.70;94.30
33865;DHT22;20159;51.072;13.526;2023-04-29T09:50:31;15.80;94.20
33865;DHT22;20159;51.072;13.526;2023-04-29T09:52:57;16.10;94.30
33865;DHT22;20159;51.072;13.526;2023-04-29T09:55:23;15.90;94.20
33865;DHT22;20159;51.072;13.526;2023-04-29T09:57:48;16.00;94.30
33865;DHT22;20159;51.072;13.526;2023-04-29T10:00:14;16.10;94.10
33865;DHT22;20159;51.072;13.526;2023-04-29T10:02:41;16.30;94.30
33865;DHT22;20159;51.072;13.526;2023-04-29T10:05:08;16.30;94.10
33865;DHT22;20159;51.072;13.526;2023-04-29T10:07:34;16.50;93.90
33865;DHT22;20159;51.072;13.526;2023-04-29T10:10:01;16.60;93.70
33865;DHT22;20159;51.072;13.526;2023-04-29T10:12:30;16.80;93.50
33865;DHT22;20159;51.072;13.526;2023-04-29T10:17:42;17.00;92.60
33865;DHT22;20159;51.072;13.526;2023-04-29T10:20:22;17.00;92.60
33865;DHT22;20159;51.072;13.526;2023-04-29T10:22:49;17.10;92.20
33865;DHT22;20159;51.072;13.526;2023-04-29T10:25:17;17.10;92.00
33865;DHT22;20159;51.072;13.526;2023-04-29T10:27:43;17.20;92.20
33865;DHT22;20159;51.072;13.526;2023-04-29T10:30:19;17.20;92.20
33865;DHT22;20159;51.072;13.526;2023-04-29T10:32:46;17.20;92.00
33865;DHT22;20159;51.072;13.526;2023-04-29T10:35:15;17.30;92.20
33865;DHT22;20159;51.072;13.526;2023-04-29T10:37:43;17.50;92.30
33865;DHT22;20159;51.072;13.526;2023-04-29T10:40:21;17.60;92.00
33865;DHT22;20159;51.072;13.526;2023-04-29T10:42:49;17.70;91.10
33865;DHT22;20159;51.072;13.526;2023-04-29T10:48:07;17.70;90.50
33865;DHT22;20159;51.072;13.526;2023-04-29T10:50:58;17.70;90.10
33865;DHT22;20159;51.072;13.526;2023-04-29T10:53:24;17.80;89.60
33865;DHT22;20159;51.072;13.526;2023-04-29T10:55:58;17.80;90.20
33865;DHT22;20159;51.072;13.526;2023-04-29T10:58:43;17.70;90.00
33865;DHT22;20159;51.072;13.526;2023-04-29T11:01:16;17.70;89.30
33865;DHT22;20159;51.072;13.526;2023-04-29T11:06:54;17.90;90.20
33865;DHT22;20159;51.072;13.526;2023-04-29T11:09:30;17.90;89.00
33865;DHT22;20159;51.072;13.526;2023-04-29T11:14:58;17.90;88.50
33865;DHT22;20159;51.072;13.526;2023-04-29T11:18:20;18.00;88.90
33865;DHT22;20159;51.072;13.526;2023-04-29T11:20:27;18.10;87.20
33865;DHT22;20159;51.072;13.526;2023-04-29T11:22:54;18.20;88.50
33865;DHT22;20159;51.072;13.526;2023-04-29T11:28:09;18.40;89.20
33865;DHT22;20159;51.072;13.526;2023-04-29T11:30:44;18.60;86.90
33865;DHT22;20159;51.072;13.526;2023-04-29T11:33:10;18.70;87.30
33865;DHT22;20159;51.072;13.526;2023-04-29T11:35:38;18.90;87.90
33865;DHT22;20159;51.072;13.526;2023-04-29T11:38:08;19.00;86.40
33865;DHT22;20159;51.072;13.526;2023-04-29T11:40:33;19.10;84.50
33865;DHT22;20159;51.072;13.526;2023-04-29T11:42:59;20.50;84.20
33865;DHT22;20159;51.072;13.526;2023-04-29T11:45:33;19.20;84.50
33865;DHT22;20159;51.072;13.526;2023-04-29T11:47:59;19.30;84.10
33865;DHT22;20159;51.072;13.526;2023-04-29T11:50:26;19.30;84.00
33865;DHT22;20159;51.072;13.526;2023-04-29T11:52:51;19.40;83.60
33865;DHT22;20159;51.072;13.526;2023-04-29T11:55:19;19.50;83.90
33865;DHT22;20159;51.072;13.526;2023-04-29T11:57:54;19.50;82.60
33865;DHT22;20159;51.072;13.526;2023-04-29T12:00:20;19.50;81.20
33865;DHT22;20159;51.072;13.526;2023-04-29T12:02:45;19.40;80.10
33865;DHT22;20159;51.072;13.526;2023-04-29T12:05:12;19.30;79.80
33865;DHT22;20159;51.072;13.526;2023-04-29T12:07:39;19.10;80.00
33865;DHT22;20159;51.072;13.526;2023-04-29T12:10:09;18.90;80.40
33865;DHT22;20159;51.072;13.526;2023-04-29T12:12:41;18.70;80.90
33865;DHT22;20159;51.072;13.526;2023-04-29T12:15:13;18.60;81.50
33865;DHT22;20159;51.072;13.526;2023-04-29T12:17:39;18.50;81.60
33865;DHT22;20159;51.072;13.526;2023-04-29T12:20:06;18.40;81.30
33865;DHT22;20159;51.072;13.526;2023-04-29T12:22:43;18.30;81.30
33865;DHT22;20159;51.072;13.526;2023-04-29T12:25:09;18.10;80.90
33865;DHT22;20159;51.072;13.526;2023-04-29T12:27:35;18.00;81.10
33865;DHT22;20159;51.072;13.526;2023-04-29T12:30:07;17.80;81.60
33865;DHT22;20159;51.072;13.526;2023-04-29T12:32:33;17.60;81.80
33865;DHT22;20159;51.072;13.526;2023-04-29T12:34:59;17.50;82.10
33865;DHT22;20159;51.072;13.526;2023-04-29T12:37:24;17.40;82.30
33865;DHT22;20159;51.072;13.526;2023-04-29T12:39:50;17.20;82.50
33865;DHT22;20159;51.072;13.526;2023-04-29T12:42:17;17.10;82.70
33865;DHT22;20159;51.072;13.526;2023-04-29T12:44:49;17.00;83.00
33865;DHT22;20159;51.072;13.526;2023-04-29T12:47:15;17.00;83.00
33865;DHT22;20159;51.072;13.526;2023-04-29T12:49:42;16.90;83.90
33865;DHT22;20159;51.072;13.526;2023-04-29T12:52:08;16.90;84.20
33865;DHT22;20159;51.072;13.526;2023-04-29T12:54:35;16.80;84.50
33865;DHT22;20159;51.072;13.526;2023-04-29T12:57:02;16.80;83.80
33865;DHT22;20159;51.072;13.526;2023-04-29T12:59:27;16.80;83.80
33865;DHT22;20159;51.072;13.526;2023-04-29T13:01:53;16.70;83.90
33865;DHT22;20159;51.072;13.526;2023-04-29T13:04:18;16.60;83.80
33865;DHT22;20159;51.072;13.526;2023-04-29T13:06:44;16.60;84.10
33865;DHT22;20159;51.072;13.526;2023-04-29T13:09:09;16.40;84.30
33865;DHT22;20159;51.072;13.526;2023-04-29T13:11:37;16.30;83.90
33865;DHT22;20159;51.072;13.526;2023-04-29T13:14:03;16.20;84.10
33865;DHT22;20159;51.072;13.526;2023-04-29T13:16:28;16.10;84.50
33865;DHT22;20159;51.072;13.526;2023-04-29T13:18:53;16.00;84.80
33865;DHT22;20159;51.072;13.526;2023-04-29T13:21:19;15.80;84.80
33865;DHT22;20159;51.072;13.526;2023-04-29T13:23:45;15.80;85.30
33865;DHT22;20159;51.072;13.526;2023-04-29T13:26:12;15.70;85.50
33865;DHT22;20159;51.072;13.526;2023-04-29T13:28:38;15.60;85.60
33865;DHT22;20159;51.072;13.526;2023-04-29T13:31:03;15.40;86.10
33865;DHT22;20159;51.072;13.526;2023-04-29T13:33:29;15.30;86.30
33865;DHT22;20159;51.072;13.526;2023-04-29T13:35:54;15.20;86.70
33865;DHT22;20159;51.072;13.526;2023-04-29T13:38:20;15.10;87.20
33865;DHT22;20159;51.072;13.526;2023-04-29T13:40:45;15.10;87.30
33865;DHT22;20159;51.072;13.526;2023-04-29T13:43:11;15.00;87.80
33865;DHT22;20159;51.072;13.526;2023-04-29T13:45:37;14.90;88.30
33865;DHT22;20159;51.072;13.526;2023-04-29T13:48:02;14.80;88.70
33865;DHT22;20159;51.072;13.526;2023-04-29T13:50:28;14.90;89.00
33865;DHT22;20159;51.072;13.526;2023-04-29T13:52:54;14.80;89.30
33865;DHT22;20159;51.072;13.526;2023-04-29T13:55:21;14.80;89.30
33865;DHT22;20159;51.072;13.526;2023-04-29T13:57:46;14.80;89.30
33865;DHT22;20159;51.072;13.526;2023-04-29T14:00:12;14.80;89.20
33865;DHT22;20159;51.072;13.526;2023-04-29T14:02:38;14.70;89.30
33865;DHT22;20159;51.072;13.526;2023-04-29T14:05:04;14.70;89.20
33865;DHT22;20159;51.072;13.526;2023-04-29T14:07:30;14.70;89.30
33865;DHT22;20159;51.072;13.526;2023-04-29T14:09:56;14.60;89.40
33865;DHT22;20159;51.072;13.526;2023-04-29T14:12:22;14.60;89.60
33865;DHT22;20159;51.072;13.526;2023-04-29T14:14:47;14.60;89.80
33865;DHT22;20159;51.072;13.526;2023-04-29T14:17:13;14.60;90.00
33865;DHT22;20159;51.072;13.526;2023-04-29T14:19:38;14.60;90.10
33865;DHT22;20159;51.072;13.526;2023-04-29T14:22:04;14.60;90.20
33865;DHT22;20159;51.072;13.526;2023-04-29T14:24:30;14.60;90.20
33865;DHT22;20159;51.072;13.526;2023-04-29T14:26:55;14.60;90.30
33865;DHT22;20159;51.072;13.526;2023-04-29T14:29:22;14.60;90.30
33865;DHT22;20159;51.072;13.526;2023-04-29T14:31:47;14.60;90.40
33865;DHT22;20159;51.072;13.526;2023-04-29T14:34:13;14.70;90.80
33865;DHT22;20159;51.072;13.526;2023-04-29T14:36:38;14.70;90.60
33865;DHT22;20159;51.072;13.526;2023-04-29T14:39:05;14.70;90.60
33865;DHT22;20159;51.072;13.526;2023-04-29T14:41:30;14.80;90.40
33865;DHT22;20159;51.072;13.526;2023-04-29T14:43:56;14.80;90.40
33865;DHT22;20159;51.072;13.526;2023-04-29T14:46:21;14.80;90.20
33865;DHT22;20159;51.072;13.526;2023-04-29T14:48:50;14.90;90.20
33865;DHT22;20159;51.072;13.526;2023-04-29T14:51:16;14.90;90.20
33865;DHT22;20159;51.072;13.526;2023-04-29T14:53:41;14.90;90.20
33865;DHT22;20159;51.072;13.526;2023-04-29T14:56:07;15.00;90.10
33865;DHT22;20159;51.072;13.526;2023-04-29T14:58:33;15.00;90.10
33865;DHT22;20159;51.072;13.526;2023-04-29T15:00:58;15.00;90.20
33865;DHT22;20159;51.072;13.526;2023-04-29T15:03:24;15.00;90.10
33865;DHT22;20159;51.072;13.526;2023-04-29T15:05:49;15.10;90.10
33865;DHT22;20159;51.072;13.526;2023-04-29T15:08:15;15.10;90.20
33865;DHT22;20159;51.072;13.526;2023-04-29T15:10:42;15.10;90.00
33865;DHT22;20159;51.072;13.526;2023-04-29T15:13:10;15.20;90.20
33865;DHT22;20159;51.072;13.526;2023-04-29T15:15:36;15.30;90.10
33865;DHT22;20159;51.072;13.526;2023-04-29T15:18:01;15.30;90.10
33865;DHT22;20159;51.072;13.526;2023-04-29T15:20:27;15.40;90.00
33865;DHT22;20159;51.072;13.526;2023-04-29T15:22:52;15.50;89.80
33865;DHT22;20159;51.072;13.526;2023-04-29T15:25:19;15.50;89.50
33865;DHT22;20159;51.072;13.526;2023-04-29T15:27:44;15.60;89.40
33865;DHT22;20159;51.072;13.526;2023-04-29T15:30:11;15.70;89.20
33865;DHT22;20159;51.072;13.526;2023-04-29T15:32:36;15.80;88.80
33865;DHT22;20159;51.072;13.526;2023-04-29T15:35:02;15.90;88.50
33865;DHT22;20159;51.072;13.526;2023-04-29T15:37:29;15.90;88.00